Lady Goodgirl — 9H8679 — position and weather

sailwx.info

Track history (hours):
 
Tides and Currents Weather Stations Pressure Air Temp Water Temp Dewpoint Dewpoint Depression Visibility Wind Speed Wind Dir Waves Ship Positions

Lady Goodgirl

Last reported at 2017-Oct-14 21:55 UTC. Time now 2017-Nov-24 07:37 UTC.
Position N 37°29' E 015°25'.
Warning: this ship's position is 40 days out of date.

Length 43 m; draft 3 m.

Type: Pleasure craft. MMSI: 256670000.

Date/timePositionNaut miles runAvg speedWind from/ knotsBaromVisibWave heightAir tempDewpointWater temp
2017-Oct-14 21:55N 37°29' E 015°25'1610.7
2017-Oct-14 20:27N 37°45' E 015°28'511.1
2017-Oct-14 20:00N 37°50' E 015°30'510.7
2017-Oct-14 19:30N 37°55' E 015°31'5 9.8
2017-Oct-14 19:00N 37°60' E 015°33'5 9.6
2017-Oct-14 18:30N 38°04' E 015°34'510.4
2017-Oct-14 18:00N 38°09' E 015°35'510.6
2017-Oct-14 17:30N 38°15' E 015°37'511.0
2017-Oct-14 17:00N 38°18' E 015°42'5 9.7
2017-Oct-14 16:30N 38°23' E 015°42'510.5
2017-Oct-14 16:00N 38°27' E 015°38'510.7
2017-Oct-14 15:30N 38°31' E 015°33'610.5
2017-Oct-14 14:58N 38°35' E 015°27'510.7
2017-Oct-14 14:28N 38°38' E 015°22'472 9.9
2017-Oct-12 14:40N 43°31' E 007°11'2 9.4
2017-Oct-12 14:26N 43°31' E 007°08'3 0.1
2017-Oct-10 16:08N 43°34' E 007°05'0 0.0
2017-Oct-10 14:44N 43°34' E 007°05'0 0.0
2017-Oct-09 08:52N 43°34' E 007°05'0 0.0
2017-Oct-09 07:28N 43°34' E 007°05'0 0.0
2017-Oct-08 21:58N 43°34' E 007°05'0 0.0
2017-Oct-08 21:28N 43°34' E 007°05'1 1.3
2017-Oct-08 20:30N 43°32' E 007°05'4 8.1
2017-Oct-08 20:00N 43°29' E 007°03'  
Track history (hours):
 
Tides and Currents Weather Stations Pressure Air Temp Water Temp Dewpoint Dewpoint Depression Visibility Wind Speed Wind Dir Waves Ship Positions

Lady Goodgirl

Last reported at 2017-Oct-14 21:55 UTC. Time now 2017-Nov-24 07:37 UTC.
Position N 37°29' E 015°25'.
Warning: this ship's position is 40 days out of date.

Length 43 m; draft 3 m.

Type: Pleasure craft. MMSI: 256670000.

Date/timePositionNaut miles runAvg speedWind from/ knotsBaromVisibWave heightAir tempDewpointWater temp
2017-Oct-14 21:55N 37°29' E 015°25'1610.7
2017-Oct-14 20:27N 37°45' E 015°28'511.1
2017-Oct-14 20:00N 37°50' E 015°30'510.7
2017-Oct-14 19:30N 37°55' E 015°31'5 9.8
2017-Oct-14 19:00N 37°60' E 015°33'5 9.6
2017-Oct-14 18:30N 38°04' E 015°34'510.4
2017-Oct-14 18:00N 38°09' E 015°35'510.6
2017-Oct-14 17:30N 38°15' E 015°37'511.0
2017-Oct-14 17:00N 38°18' E 015°42'5 9.7
2017-Oct-14 16:30N 38°23' E 015°42'510.5
2017-Oct-14 16:00N 38°27' E 015°38'510.7
2017-Oct-14 15:30N 38°31' E 015°33'610.5
2017-Oct-14 14:58N 38°35' E 015°27'510.7
2017-Oct-14 14:28N 38°38' E 015°22'472 9.9
2017-Oct-12 14:40N 43°31' E 007°11'2 9.4
2017-Oct-12 14:26N 43°31' E 007°08'3 0.1
2017-Oct-10 16:08N 43°34' E 007°05'0 0.0
2017-Oct-10 14:44N 43°34' E 007°05'0 0.0
2017-Oct-09 08:52N 43°34' E 007°05'0 0.0
2017-Oct-09 07:28N 43°34' E 007°05'0 0.0
2017-Oct-08 21:58N 43°34' E 007°05'0 0.0
2017-Oct-08 21:28N 43°34' E 007°05'1 1.3
2017-Oct-08 20:30N 43°32' E 007°05'4 8.1
2017-Oct-08 20:00N 43°29' E 007°03'  

Dump ship's entire track history